Time;durP1;ratioP1;P1;durP2;ratioP2;P2;SDS_P1;SDS_P2;PMS_P1;PMS_P2;Temp;Humidity;BMP_temperature;BMP_pressure;BME280_temperature;BME280_humidity;BME280_pressure;Samples;Min_cycle;Max_cycle;Signal;HPM_P1;HPM_P2
2023/04/29 00:00:41;;;;;;;38.72;25.73;;;;;;;8.98;100.00;101415.97;4899083;29;20059;-76
2023/04/29 00:03:07;;;;;;;44.13;28.05;;;;;;;8.97;100.00;101428.28;4898324;29;20471;-76
2023/04/29 00:05:32;;;;;;;43.10;27.60;;;;;;;8.93;100.00;101434.50;4911485;29;20472;-76
2023/04/29 00:07:58;;;;;;;39.75;26.15;;;;;;;8.92;100.00;101430.06;4881688;29;20088;-76
2023/04/29 00:10:23;;;;;;;39.85;25.80;;;;;;;8.86;100.00;101438.06;4881430;29;20033;-76
2023/04/29 00:12:50;;;;;;;40.33;25.45;;;;;;;8.84;100.00;101439.81;4884785;29;20146;-76
2023/04/29 00:15:16;;;;;;;38.70;25.80;;;;;;;8.79;100.00;101434.56;4905128;29;20114;-76
2023/04/29 00:17:41;;;;;;;34.75;24.88;;;;;;;8.80;100.00;101438.97;4898222;29;20048;-76
2023/04/29 00:20:07;;;;;;;31.38;22.67;;;;;;;8.79;100.00;101437.19;4889146;29;20069;-76
2023/04/29 00:22:33;;;;;;;33.97;22.88;;;;;;;8.80;100.00;101441.59;4898094;29;20510;-77
2023/04/29 00:24:58;;;;;;;30.80;21.60;;;;;;;8.82;100.00;101444.22;4901090;29;20111;-76
2023/04/29 00:27:24;;;;;;;30.92;19.35;;;;;;;8.81;100.00;101440.72;4899755;29;20461;-75
2023/04/29 00:29:50;;;;;;;30.92;21.42;;;;;;;8.77;100.00;101446.00;4880594;29;20032;-76
2023/04/29 00:32:16;;;;;;;30.85;21.55;;;;;;;8.71;100.00;101441.66;4897327;29;20567;-75
2023/04/29 00:34:41;;;;;;;30.63;21.98;;;;;;;8.76;100.00;101450.41;4897071;29;20685;-75
2023/04/29 00:37:07;;;;;;;31.05;21.60;;;;;;;8.69;100.00;101447.81;4902857;29;20044;-75
2023/04/29 00:39:32;;;;;;;34.97;22.13;;;;;;;8.70;100.00;101452.19;4905635;29;20060;-75
2023/04/29 00:41:58;;;;;;;34.08;23.25;;;;;;;8.67;100.00;101452.22;4900388;29;20036;-75
2023/04/29 00:44:23;;;;;;;31.45;22.90;;;;;;;8.65;100.00;101454.84;4897314;29;20135;-75
2023/04/29 00:46:49;;;;;;;36.03;25.05;;;;;;;8.65;100.00;101454.00;4890924;29;20052;-75
2023/04/29 00:49:15;;;;;;;34.05;22.92;;;;;;;8.66;100.00;101461.03;4880070;29;20047;-75
2023/04/29 00:51:41;;;;;;;34.00;23.75;;;;;;;8.62;100.00;101454.88;4879667;29;20044;-75
2023/04/29 00:54:08;;;;;;;31.92;22.90;;;;;;;8.66;100.00;101463.69;4894096;29;20028;-75
2023/04/29 00:56:35;;;;;;;36.97;24.33;;;;;;;8.63;100.00;101472.50;4908076;29;20365;-76
2023/04/29 00:59:02;;;;;;;40.72;26.70;;;;;;;8.59;100.00;101462.81;4899002;29;20308;-76
2023/04/29 01:01:31;;;;;;;36.97;25.88;;;;;;;8.56;100.00;101473.41;4897048;29;20041;-75
2023/04/29 01:03:57;;;;;;;39.22;24.73;;;;;;;8.54;100.00;101467.25;4911716;29;20033;-75
2023/04/29 01:06:42;;;;;;;38.65;25.08;;;;;;;8.50;100.00;101476.91;4896717;29;20493;-75
2023/04/29 01:09:42;;;;;;;37.78;26.13;;;;;;;8.50;100.00;101468.13;4901654;29;20032;-76
2023/04/29 01:12:45;;;;;;;38.35;26.02;;;;;;;8.53;100.00;101479.56;4911290;29;20051;-76
2023/04/29 01:15:17;;;;;;;38.22;25.58;;;;;;;8.53;100.00;101482.22;4904549;29;20047;-76
2023/04/29 01:17:59;;;;;;;;;;;;;;;8.56;100.00;101482.19;4923099;29;20032;-74
2023/04/29 01:20:26;;;;;;;35.85;24.80;;;;;;;8.53;100.00;101486.59;4900705;29;20379;-74
2023/04/29 01:22:52;;;;;;;40.03;26.60;;;;;;;8.48;100.00;101486.63;4895570;29;20119;-74
2023/04/29 01:25:18;;;;;;;40.83;26.42;;;;;;;8.48;100.00;101477.81;4897333;29;20115;-74
2023/04/29 01:28:33;;;;;;;37.60;23.67;;;;;;;8.54;100.00;101486.59;4897834;29;20043;-74
2023/04/29 01:31:05;;;;;;;44.58;27.30;;;;;;;8.49;100.00;101488.38;4919612;29;20047;-74
2023/04/29 01:33:40;;;;;;;42.08;26.60;;;;;;;8.50;100.00;101490.09;4891962;29;20120;-74
2023/04/29 01:36:34;;;;;;;40.78;26.98;;;;;;;8.52;100.00;101493.63;4918153;29;20032;-74
2023/04/29 01:39:16;;;;;;;38.85;25.45;;;;;;;8.55;100.00;101498.03;4894400;29;20388;-74
2023/04/29 01:42:10;;;;;;;38.92;26.05;;;;;;;8.56;100.00;101500.66;4910738;29;20044;-74
2023/04/29 01:44:37;;;;;;;41.95;25.48;;;;;;;8.54;100.00;101493.63;4903700;29;20394;-75
2023/04/29 01:47:05;;;;;;;42.72;26.42;;;;;;;8.49;100.00;101498.94;4910555;29;20556;-75
2023/04/29 01:49:38;;;;;;;40.17;27.42;;;;;;;8.48;100.00;101494.53;4880692;29;20044;-75
2023/04/29 01:52:05;;;;;;;38.75;26.10;;;;;;;8.47;100.00;101503.31;4910951;29;20041;-75
2023/04/29 01:54:35;;;;;;;44.47;27.00;;;;;;;8.49;100.00;101501.56;4894371;29;20473;-75
2023/04/29 01:57:02;;;;;;;49.30;28.52;;;;;;;8.51;100.00;101501.56;4911156;29;20048;-75
2023/04/29 01:59:47;;;;;;;49.58;28.15;;;;;;;8.51;100.00;101499.81;4899321;29;20036;-75
2023/04/29 02:02:39;;;;;;;;;;;;;;;8.54;100.00;101505.06;4900153;29;20086;-75
2023/04/29 02:05:32;;;;;;;46.05;28.20;;;;;;;8.49;100.00;101504.19;4906822;29;19915;-75
2023/04/29 02:08:00;;;;;;;51.03;29.55;;;;;;;8.52;100.00;101505.97;4918116;29;20492;-75
2023/04/29 02:10:27;;;;;;;49.83;32.13;;;;;;;8.48;100.00;101510.38;4904568;29;20067;-75
2023/04/29 02:13:03;;;;;;;50.35;29.13;;;;;;;8.50;100.00;101511.22;4900183;29;20051;-75
2023/04/29 02:15:29;;;;;;;48.95;30.33;;;;;;;8.47;100.00;101508.59;4914483;29;20131;-75
2023/04/29 02:17:55;;;;;;;50.45;31.88;;;;;;;8.47;100.00;101515.66;4898646;29;20120;-74
2023/04/29 02:20:20;;;;;;;56.60;31.73;;;;;;;8.48;100.00;101523.56;4897564;29;20504;-74
2023/04/29 02:22:46;;;;;;;54.17;30.42;;;;;;;8.48;100.00;101526.22;4900094;29;20084;-74
2023/04/29 02:25:11;;;;;;;56.03;33.75;;;;;;;8.49;100.00;101521.81;4898199;29;20132;-75
2023/04/29 02:27:37;;;;;;;50.85;31.08;;;;;;;8.49;100.00;101530.59;4900050;29;20060;-75
2023/04/29 02:30:04;;;;;;;52.30;31.63;;;;;;;8.48;100.00;101535.88;4912811;29;20072;-75
2023/04/29 02:32:30;;;;;;;53.35;30.33;;;;;;;8.45;100.00;101539.41;4898581;29;20042;-75
2023/04/29 02:34:56;;;;;;;57.03;31.63;;;;;;;8.46;100.00;101532.38;4898210;29;20045;-75
2023/04/29 02:37:22;;;;;;;57.88;30.83;;;;;;;8.41;100.00;101540.31;4899221;29;20068;-75
2023/04/29 02:39:47;;;;;;;52.17;30.77;;;;;;;8.39;100.00;101536.75;4899514;29;20049;-75
2023/04/29 02:42:13;;;;;;;59.30;31.98;;;;;;;8.41;100.00;101545.59;4899323;29;20040;-75
2023/04/29 02:44:39;;;;;;;58.65;32.30;;;;;;;8.42;100.00;101552.59;4899184;29;20047;-75
2023/04/29 02:47:04;;;;;;;57.75;30.70;;;;;;;8.43;100.00;101557.00;4911661;29;20053;-75
2023/04/29 02:49:31;;;;;;;57.28;31.25;;;;;;;8.41;100.00;101550.88;4909166;29;20056;-75
2023/04/29 02:51:57;;;;;;;65.45;31.95;;;;;;;8.39;100.00;101558.78;4898573;29;20072;-75
2023/04/29 02:54:23;;;;;;;52.03;28.63;;;;;;;8.45;100.00;101568.44;4911289;29;20040;-75
2023/04/29 02:56:48;;;;;;;58.22;31.02;;;;;;;8.45;100.00;101560.50;4911483;29;20084;-75
2023/04/29 02:59:14;;;;;;;52.85;29.63;;;;;;;8.48;100.00;101572.81;4899032;29;20029;-74
2023/04/29 03:01:40;;;;;;;50.75;31.42;;;;;;;8.47;100.00;101573.72;4901620;29;20092;-74
2023/04/29 03:04:05;;;;;;;59.42;30.40;;;;;;;8.48;100.00;101575.47;4914096;29;20037;-74
2023/04/29 03:06:32;;;;;;;49.80;27.25;;;;;;;8.49;100.00;101575.47;4881965;29;20060;-74
2023/04/29 03:08:57;;;;;;;51.97;27.38;;;;;;;8.46;100.00;101575.50;4884826;29;20047;-74
2023/04/29 03:11:23;;;;;;;52.83;27.48;;;;;;;8.43;100.00;101570.19;4913332;29;20084;-74
2023/04/29 03:13:49;;;;;;;48.35;27.55;;;;;;;8.46;100.00;101585.16;4913105;29;20036;-74
2023/04/29 03:16:15;;;;;;;49.58;25.75;;;;;;;8.45;100.00;101581.63;4913351;29;20060;-75
2023/04/29 03:18:42;;;;;;;42.30;24.45;;;;;;;8.46;100.00;101580.75;4898444;29;20488;-75
2023/04/29 03:21:08;;;;;;;49.97;27.30;;;;;;;8.44;100.00;101579.88;4898996;29;20036;-75
2023/04/29 03:23:34;;;;;;;50.45;25.58;;;;;;;8.44;100.00;101585.16;4897502;29;20422;-74
2023/04/29 03:26:01;;;;;;;46.83;25.67;;;;;;;8.40;100.00;101581.63;4913274;29;20033;-74
2023/04/29 03:28:27;;;;;;;46.30;23.58;;;;;;;8.44;100.00;101586.94;4881673;29;20079;-75
2023/04/29 03:30:53;;;;;;;37.88;22.90;;;;;;;8.44;100.00;101593.09;4897088;29;20032;-75
2023/04/29 03:33:18;;;;;;;41.80;24.08;;;;;;;8.45;100.00;101591.31;4902966;29;20464;-75
2023/04/29 03:35:44;;;;;;;39.28;23.15;;;;;;;8.44;100.00;101592.22;4912972;29;20135;-75
2023/04/29 03:38:28;;;;;;;37.60;21.88;;;;;;;8.46;100.00;101588.69;4898987;29;20051;-75
2023/04/29 03:40:54;;;;;;;42.65;22.13;;;;;;;8.46;100.00;101591.31;4912348;29;20040;-74
2023/04/29 03:43:20;;;;;;;41.47;22.92;;;;;;;8.50;100.00;101600.97;4897140;29;20032;-75
2023/04/29 03:45:46;;;;;;;37.75;21.98;;;;;;;8.49;100.00;101593.09;4912660;29;20076;-75
2023/04/29 03:48:15;;;;;;;39.90;24.02;;;;;;;8.48;100.00;101597.50;4912782;29;20770;-75
2023/04/29 03:50:41;;;;;;;38.35;23.02;;;;;;;8.46;100.00;101595.72;4897279;29;20047;-75
2023/04/29 03:53:07;;;;;;;40.42;22.30;;;;;;;8.46;100.00;101590.44;4896040;29;20061;-75
2023/04/29 03:55:33;;;;;;;39.50;22.80;;;;;;;8.43;100.00;101596.59;4922497;29;20044;-75
2023/04/29 03:57:58;;;;;;;42.88;24.10;;;;;;;8.42;100.00;101589.56;4915954;29;20036;-75
2023/04/29 04:00:25;;;;;;;44.17;25.30;;;;;;;8.45;100.00;101597.47;4920500;29;20040;-75
2023/04/29 04:02:53;;;;;;;41.03;24.55;;;;;;;8.47;100.00;101597.47;4901625;29;20037;-75
2023/04/29 04:05:20;;;;;;;38.60;22.63;;;;;;;8.45;100.00;101608.03;4920797;29;20151;-75
2023/04/29 04:07:51;;;;;;;40.30;24.25;;;;;;;8.46;100.00;101607.16;4906779;29;20032;-75
2023/04/29 04:10:35;;;;;;;38.63;22.23;;;;;;;8.47;100.00;101615.94;4897721;29;20036;-75
2023/04/29 04:13:04;;;;;;;36.50;21.60;;;;;;;8.50;100.00;101619.47;4896773;29;20041;-75
2023/04/29 04:15:30;;;;;;;37.15;21.73;;;;;;;8.50;100.00;101622.09;4900228;29;20055;-75
2023/04/29 04:17:57;;;;;;;36.92;22.77;;;;;;;8.49;100.00;101620.34;4896379;29;20365;-74
2023/04/29 04:20:22;;;;;;;39.38;23.00;;;;;;;8.49;100.00;101617.72;4898927;29;20051;-74
2023/04/29 04:22:49;;;;;;;40.25;23.23;;;;;;;8.48;100.00;101622.97;4895860;29;20433;-74
2023/04/29 04:25:24;;;;;;;46.70;22.75;;;;;;;8.47;100.00;101618.59;4895946;29;20041;-75
2023/04/29 04:27:58;;;;;;;33.72;21.10;;;;;;;8.49;100.00;101623.00;4912212;29;20472;-74
2023/04/29 04:30:39;;;;;;;34.80;20.15;;;;;;;8.49;100.00;101624.75;4911805;29;20132;-75
2023/04/29 04:33:05;;;;;;;40.17;20.77;;;;;;;8.49;100.00;101623.00;4895787;29;20459;-74
2023/04/29 04:35:34;;;;;;;35.03;21.60;;;;;;;8.49;100.00;101630.91;4895824;29;20483;-74
2023/04/29 04:38:00;;;;;;;35.60;18.52;;;;;;;8.49;100.00;101640.59;4911677;29;20123;-74
2023/04/29 04:40:26;;;;;;;31.42;19.75;;;;;;;8.48;100.00;101638.81;4895626;29;20429;-74
2023/04/29 04:43:18;;;;;;;33.83;20.88;;;;;;;8.46;100.00;101644.13;4896847;29;20040;-74
2023/04/29 04:45:44;;;;;;;31.52;19.42;;;;;;;8.44;100.00;101643.22;4911002;29;20588;-74
2023/04/29 04:48:09;;;;;;;29.92;19.13;;;;;;;8.48;100.00;101652.00;4889444;29;20035;-74
2023/04/29 04:50:37;;;;;;;31.20;20.20;;;;;;;8.49;100.00;101653.78;4879075;29;20044;-74
2023/04/29 04:53:03;;;;;;;33.15;19.50;;;;;;;8.49;100.00;101657.31;4865357;29;20135;-74
2023/04/29 04:55:48;;;;;;;35.88;20.50;;;;;;;8.52;100.00;101665.22;4895872;29;20100;-74
2023/04/29 04:58:14;;;;;;;35.38;18.83;;;;;;;8.54;100.00;101678.44;4882724;29;20044;-74
2023/04/29 05:00:43;;;;;;;29.27;20.23;;;;;;;8.53;100.00;101674.91;4879607;29;20112;-74
2023/04/29 05:03:09;;;;;;;31.95;20.05;;;;;;;8.55;100.00;101681.06;4895109;29;20033;-75
2023/04/29 05:05:34;;;;;;;31.38;20.02;;;;;;;8.54;100.00;101681.06;4896813;29;20445;-74
2023/04/29 05:08:00;;;;;;;32.20;18.58;;;;;;;8.55;100.00;101682.81;4888794;29;20123;-74
2023/04/29 05:10:35;;;;;;;31.30;18.80;;;;;;;8.56;100.00;101687.22;4864715;29;20467;-74
2023/04/29 05:13:01;;;;;;;29.13;19.10;;;;;;;8.57;100.00;101696.91;4879569;29;20029;-74
2023/04/29 05:15:27;;;;;;;28.77;19.05;;;;;;;8.57;100.00;101695.13;4878890;29;20039;-74
2023/04/29 05:17:54;;;;;;;29.75;20.00;;;;;;;8.59;100.00;101697.78;4907612;29;20047;-74
2023/04/29 05:20:21;;;;;;;30.20;18.80;;;;;;;8.58;100.00;101703.94;4880175;29;20037;-74
2023/04/29 05:22:46;;;;;;;29.73;18.92;;;;;;;8.55;100.00;101704.81;4879402;29;20057;-74
2023/04/29 05:25:13;;;;;;;30.98;18.83;;;;;;;8.54;100.00;101703.06;4895424;29;20404;-74
2023/04/29 05:27:39;;;;;;;35.00;20.50;;;;;;;8.53;100.00;101709.25;4895056;29;20132;-74
2023/04/29 05:30:09;;;;;;;28.92;17.95;;;;;;;8.54;100.00;101713.63;4895996;29;20122;-74
2023/04/29 05:32:35;;;;;;;32.15;18.92;;;;;;;8.56;100.00;101711.88;4891175;29;20136;-74
2023/04/29 05:35:01;;;;;;;29.00;18.50;;;;;;;8.57;100.00;101707.47;4863656;29;20119;-74
2023/04/29 05:37:29;;;;;;;27.75;17.90;;;;;;;8.58;100.00;101717.13;4879398;29;20043;-74
2023/04/29 05:40:16;;;;;;;28.00;18.00;;;;;;;8.59;100.00;101714.50;4879540;29;20354;-74
2023/04/29 05:42:42;;;;;;;31.13;18.45;;;;;;;8.58;100.00;101715.41;4864119;29;20124;-74
2023/04/29 05:45:08;;;;;;;27.95;18.52;;;;;;;8.62;100.00;101718.91;4879807;29;20083;-74
2023/04/29 05:47:34;;;;;;;27.17;18.45;;;;;;;8.64;100.00;101718.91;4891349;29;20057;-74
2023/04/29 05:50:00;;;;;;;28.85;18.25;;;;;;;8.66;100.00;101731.25;4907505;29;20028;-74
2023/04/29 05:52:27;;;;;;;29.88;19.27;;;;;;;8.67;100.00;101740.91;4893654;29;20062;-74
2023/04/29 05:54:52;;;;;;;28.17;18.35;;;;;;;8.64;100.00;101722.44;4894544;29;20511;-74
2023/04/29 05:57:18;;;;;;;29.67;18.27;;;;;;;8.66;100.00;101733.88;4879930;29;20119;-74
2023/04/29 05:59:43;;;;;;;28.15;16.80;;;;;;;8.63;100.00;101739.16;4914037;29;20044;-74
2023/04/29 06:02:10;;;;;;;26.60;17.38;;;;;;;8.65;100.00;101742.66;4894386;29;20037;-74
2023/04/29 06:04:40;;;;;;;30.95;16.88;;;;;;;8.66;100.00;101749.72;4912046;29;20036;-74
2023/04/29 06:07:27;;;;;;;26.55;18.17;;;;;;;8.67;100.00;101754.09;4904254;29;20114;-74
2023/04/29 06:10:14;;;;;;;25.88;17.45;;;;;;;8.70;100.00;101761.16;4904614;29;20037;-74
2023/04/29 06:12:41;;;;;;;33.13;18.50;;;;;;;8.70;100.00;101771.72;4910277;29;20052;-74
2023/04/29 06:15:07;;;;;;;31.70;16.55;;;;;;;8.69;100.00;101762.91;4909409;29;20040;-74
2023/04/29 06:17:33;;;;;;;28.63;18.25;;;;;;;8.73;100.00;101763.78;4894968;29;20051;-74
2023/04/29 06:19:58;;;;;;;27.38;16.55;;;;;;;8.78;100.00;101765.56;4905577;29;20080;-74
2023/04/29 06:22:24;;;;;;;24.88;16.73;;;;;;;8.82;100.00;101766.44;4894468;29;20041;-74
2023/04/29 06:24:52;;;;;;;28.23;15.93;;;;;;;8.85;100.00;101773.47;4892087;29;20115;-74
2023/04/29 06:27:25;;;;;;;25.48;14.82;;;;;;;8.87;100.00;101772.59;4887239;29;20041;-74
2023/04/29 06:29:51;;;;;;;27.40;16.95;;;;;;;8.90;100.00;101779.66;4895201;29;20051;-74
2023/04/29 06:32:16;;;;;;;22.92;16.33;;;;;;;8.93;100.00;101777.91;4901773;29;20028;-74
2023/04/29 06:34:44;;;;;;;26.95;16.55;;;;;;;8.97;100.00;101784.06;4909451;29;20124;-74
2023/04/29 06:37:25;;;;;;;22.42;15.52;;;;;;;9.02;100.00;101779.66;4897000;29;20461;-74
2023/04/29 06:40:02;;;;;;;25.25;15.82;;;;;;;9.06;100.00;101791.09;4895835;29;20040;-74
2023/04/29 06:42:40;;;;;;;22.13;15.35;;;;;;;9.08;100.00;101797.28;4899875;29;20084;-74
2023/04/29 06:45:24;;;;;;;25.40;16.27;;;;;;;9.12;100.00;101799.88;4897660;29;20059;-74
2023/04/29 06:48:03;;;;;;;22.60;15.40;;;;;;;9.15;100.00;101807.84;4896527;29;20040;-74
2023/04/29 06:50:51;;;;;;;24.35;14.90;;;;;;;9.20;100.00;101811.34;4891988;29;20119;-74
2023/04/29 06:53:17;;;;;;;23.90;15.50;;;;;;;9.20;100.00;101805.19;4894272;29;20180;-74
2023/04/29 06:55:43;;;;;;;23.33;15.57;;;;;;;9.22;100.00;101822.81;4899402;29;20338;-74
2023/04/29 06:58:09;;;;;;;23.05;13.88;;;;;;;9.24;100.00;101821.03;4891113;29;20411;-74
2023/04/29 07:00:34;;;;;;;23.23;14.35;;;;;;;9.24;100.00;101814.88;4884538;29;20044;-74
2023/04/29 07:03:00;;;;;;;22.75;14.77;;;;;;;9.27;100.00;101822.78;4889304;29;20039;-74
2023/04/29 07:05:25;;;;;;;21.27;14.50;;;;;;;9.29;100.00;101830.72;4882258;29;20112;-74
2023/04/29 07:07:51;;;;;;;18.08;13.02;;;;;;;9.28;100.00;101824.56;4878261;29;20045;-74
2023/04/29 07:10:17;;;;;;;21.00;13.13;;;;;;;9.33;100.00;101832.50;4885984;29;20048;-74
2023/04/29 07:12:42;;;;;;;20.73;13.85;;;;;;;9.37;100.00;101843.06;4893950;29;20088;-74
2023/04/29 07:15:08;;;;;;;23.65;13.32;;;;;;;9.41;100.00;101844.81;4895299;29;20044;-74
2023/04/29 07:17:34;;;;;;;20.52;13.18;;;;;;;9.42;100.00;101851.88;4893623;29;20112;-74
2023/04/29 07:19:59;;;;;;;21.55;13.02;;;;;;;9.44;100.00;101846.56;4881815;29;20211;-74
2023/04/29 07:22:25;;;;;;;26.85;13.90;;;;;;;9.50;100.00;101843.94;4882091;29;20037;-74
2023/04/29 07:24:54;;;;;;;21.35;13.98;;;;;;;9.59;100.00;101845.66;4873020;29;20136;-74
2023/04/29 07:27:20;;;;;;;20.25;13.23;;;;;;;9.70;100.00;101851.84;4869423;29;20043;-74
2023/04/29 07:29:46;;;;;;;20.98;14.95;;;;;;;9.78;100.00;101851.81;4881863;29;20040;-74
2023/04/29 07:32:12;;;;;;;21.73;13.60;;;;;;;9.84;100.00;101857.97;4885328;29;20126;-74
2023/04/29 07:34:38;;;;;;;19.77;13.48;;;;;;;9.87;99.22;101854.44;4893332;29;20096;-74
2023/04/29 07:37:03;;;;;;;19.10;13.63;;;;;;;9.98;100.00;101864.97;4868071;29;20029;-75
2023/04/29 07:39:29;;;;;;;20.65;13.93;;;;;;;10.08;100.00;101869.34;4885065;29;20072;-74
2023/04/29 07:41:56;;;;;;;23.30;13.48;;;;;;;10.17;100.00;101865.81;4890535;29;20108;-74
2023/04/29 07:44:22;;;;;;;18.40;12.02;;;;;;;10.18;97.36;101868.44;4883551;29;20040;-74
2023/04/29 07:46:47;;;;;;;19.85;12.20;;;;;;;10.31;99.38;101867.56;4898841;29;20120;-74
2023/04/29 07:49:13;;;;;;;19.05;12.13;;;;;;;10.38;95.69;101867.50;4910712;29;20040;-74
2023/04/29 07:51:41;;;;;;;20.40;12.65;;;;;;;10.47;98.52;101867.47;4909912;29;20477;-74
2023/04/29 07:54:09;;;;;;;17.55;11.75;;;;;;;10.50;94.08;101870.09;4897705;29;20095;-74
2023/04/29 07:56:35;;;;;;;17.48;12.30;;;;;;;10.50;96.71;101865.66;4896039;29;20060;-74
2023/04/29 07:59:00;;;;;;;17.05;12.25;;;;;;;10.58;96.44;101876.22;4916251;29;20449;-74
2023/04/29 08:01:27;;;;;;;19.23;11.70;;;;;;;10.65;96.17;101875.31;4912456;29;20048;-74
2023/04/29 08:03:53;;;;;;;20.67;10.73;;;;;;;10.72;94.44;101879.69;4905293;29;20072;-74
2023/04/29 08:06:21;;;;;;;22.33;12.45;;;;;;;10.83;95.61;101884.94;4901346;29;20048;-74
2023/04/29 08:08:47;;;;;;;19.33;11.80;;;;;;;10.90;94.39;101878.69;4912507;29;20032;-74
2023/04/29 08:11:20;;;;;;;19.48;11.27;;;;;;;10.96;92.60;101880.44;4881403;29;20040;-74
2023/04/29 08:13:46;;;;;;;17.85;11.98;;;;;;;11.04;94.99;101888.31;4899485;29;20496;-74
2023/04/29 08:16:12;;;;;;;22.80;11.98;;;;;;;11.06;93.50;101887.41;4908649;29;20027;-74
2023/04/29 08:18:39;;;;;;;17.17;11.68;;;;;;;11.06;93.97;101887.41;4897886;29;20033;-75
2023/04/29 08:21:05;;;;;;;21.80;11.40;;;;;;;11.13;94.23;101891.78;4903737;29;20083;-74
2023/04/29 08:23:31;;;;;;;23.75;11.07;;;;;;;11.18;93.60;101887.34;4896655;29;20056;-74
2023/04/29 08:25:57;;;;;;;17.42;11.68;;;;;;;11.26;92.31;101897.00;4896561;29;20072;-74
2023/04/29 08:28:23;;;;;;;18.55;11.50;;;;;;;11.25;91.63;101892.56;4897801;29;20497;-74
2023/04/29 08:30:49;;;;;;;22.63;13.20;;;;;;;11.20;92.60;101889.94;4897615;29;20048;-75
2023/04/29 08:33:15;;;;;;;19.38;13.63;;;;;;;11.14;90.73;101900.63;4900410;29;20680;-75
2023/04/29 08:35:41;;;;;;;21.20;13.00;;;;;;;11.14;91.21;101904.16;4896269;29;20452;-75
2023/04/29 08:38:08;;;;;;;18.83;12.20;;;;;;;11.17;91.90;101909.41;4897678;29;20020;-75
2023/04/29 08:40:42;;;;;;;20.38;12.52;;;;;;;11.25;90.75;101900.53;4909693;29;20040;-75
2023/04/29 08:43:08;;;;;;;21.27;12.73;;;;;;;11.33;91.98;101901.38;4890396;29;20035;-75
2023/04/29 08:45:38;;;;;;;20.98;11.82;;;;;;;11.35;88.38;101900.47;4902837;29;20028;-74
2023/04/29 08:48:05;;;;;;;15.98;11.40;;;;;;;11.33;90.40;101907.53;4901810;29;20028;-75
2023/04/29 08:50:38;;;;;;;16.52;11.15;;;;;;;11.41;91.15;101905.69;4905992;29;20037;-75
2023/04/29 08:53:05;;;;;;;23.35;11.27;;;;;;;11.52;89.27;101902.97;4896281;29;20408;-75
2023/04/29 08:55:33;;;;;;;18.77;11.00;;;;;;;11.67;89.22;101911.66;4849775;29;20445;-75
2023/04/29 08:58:01;;;;;;;18.13;11.65;;;;;;;11.78;89.87;101915.97;4910540;29;20044;-75
2023/04/29 09:00:27;;;;;;;20.60;12.65;;;;;;;11.88;88.61;101918.59;4897080;29;20044;-74
2023/04/29 09:02:55;;;;;;;15.23;11.15;;;;;;;12.07;89.38;101912.19;4897573;29;20064;-75
2023/04/29 09:05:21;;;;;;;18.33;11.23;;;;;;;12.26;88.61;101916.41;4892062;29;20028;-74
2023/04/29 09:07:49;;;;;;;15.65;10.40;;;;;;;12.39;87.98;101910.94;4909546;29;20032;-74
2023/04/29 09:10:15;;;;;;;17.10;10.57;;;;;;;12.51;85.40;101915.22;4894003;29;20100;-74
2023/04/29 09:12:41;;;;;;;15.25;9.82;;;;;;;12.61;85.03;101914.19;4897271;29;20024;-80
2023/04/29 09:15:07;;;;;;;17.95;10.15;;;;;;;12.67;85.03;101908.81;4911537;29;20540;-80
2023/04/29 09:17:46;;;;;;;12.68;9.10;;;;;;;12.73;83.76;101915.81;4916346;29;20044;-80
2023/04/29 09:20:21;;;;;;;15.68;9.43;;;;;;;12.76;85.30;101919.31;4891913;29;20037;-80
2023/04/29 09:22:51;;;;;;;16.08;9.90;;;;;;;12.95;83.20;101927.03;4915964;29;20123;-81
2023/04/29 09:25:16;;;;;;;21.13;9.93;;;;;;;13.13;81.07;101924.97;4915060;29;20043;-80
2023/04/29 09:27:42;;;;;;;15.60;9.43;;;;;;;13.42;80.54;101921.00;4916107;29;20032;-81
2023/04/29 09:30:09;;;;;;;18.13;9.70;;;;;;;13.76;81.04;101920.44;4903293;29;20124;-80
2023/04/29 09:32:35;;;;;;;15.35;9.23;;;;;;;13.91;75.72;101924.59;4915525;29;20044;-81
2023/04/29 09:35:23;;;;;;;16.30;9.60;;;;;;;14.09;78.39;101926.91;4915926;29;20112;-81
2023/04/29 09:37:50;;;;;;;13.27;8.90;;;;;;;14.05;73.99;101921.69;4887498;29;20480;-81
2023/04/29 09:40:31;;;;;;;12.98;8.07;;;;;;;14.15;76.31;101928.59;4906911;29;20051;-80
2023/04/29 09:42:58;;;;;;;15.27;8.90;;;;;;;14.21;73.66;101928.47;4898064;29;20104;-80
2023/04/29 09:45:37;;;;;;;12.35;8.50;;;;;;;14.28;74.83;101934.56;4879645;29;20029;-80
2023/04/29 09:48:07;;;;;;;12.43;8.32;;;;;;;14.20;73.17;101929.38;4896402;29;20096;-80
2023/04/29 09:50:38;;;;;;;13.07;8.73;;;;;;;14.07;69.83;101938.50;4896451;29;20496;-80
2023/04/29 09:53:09;;;;;;;16.92;8.30;;;;;;;13.97;72.83;101940.44;4878696;29;20052;-74
2023/04/29 09:55:53;;;;;;;11.88;8.65;;;;;;;14.07;72.76;101939.41;4896759;29;20040;-74
2023/04/29 09:58:35;;;;;;;19.98;8.88;;;;;;;14.37;72.89;101940.56;4913165;29;20454;-74
2023/04/29 10:01:02;;;;;;;11.82;7.95;;;;;;;14.53;69.57;101935.84;4911728;29;20079;-74
2023/04/29 10:03:36;;;;;;;12.98;8.55;;;;;;;14.74;72.32;101947.84;4915003;29;20044;-74
2023/04/29 10:06:04;;;;;;;13.82;8.05;;;;;;;14.97;70.65;101944.66;4913265;29;20055;-74
2023/04/29 10:08:31;;;;;;;16.90;9.05;;;;;;;15.25;67.77;101949.34;4903813;29;20420;-74
2023/04/29 10:11:00;;;;;;;13.93;8.60;;;;;;;15.33;69.45;101946.50;4901297;29;20481;-74
2023/04/29 10:13:27;;;;;;;15.43;8.85;;;;;;;15.21;67.82;101959.22;4908696;29;20037;-74
2023/04/29 10:16:03;;;;;;;14.43;7.97;;;;;;;14.98;66.90;101954.41;4908065;29;20024;-75
2023/04/29 10:18:38;;;;;;;13.63;7.45;;;;;;;14.79;67.76;101958.41;4915002;29;20107;-74
2023/04/29 10:21:11;;;;;;;14.10;7.57;;;;;;;14.70;66.62;101953.28;4905945;29;20040;-74
2023/04/29 10:23:36;;;;;;;14.43;7.53;;;;;;;14.67;66.51;101956.00;4893250;29;20493;-75
2023/04/29 10:26:03;;;;;;;13.40;7.88;;;;;;;14.69;67.37;101957.72;4918335;29;20024;-75
2023/04/29 10:28:31;;;;;;;12.93;6.80;;;;;;;14.80;66.94;101969.03;4918158;29;20032;-74
2023/04/29 10:31:01;;;;;;;10.27;7.05;;;;;;;14.87;67.80;101966.25;4918428;29;20044;-75
2023/04/29 10:33:31;;;;;;;12.85;7.18;;;;;;;14.97;68.67;101963.34;4918156;29;20693;-75
2023/04/29 10:35:57;;;;;;;11.50;7.68;;;;;;;15.00;66.29;101963.25;4918374;29;20068;-74
2023/04/29 10:38:35;;;;;;;12.82;7.53;;;;;;;15.11;69.83;101957.69;4909641;29;20059;-75
2023/04/29 10:41:07;;;;;;;13.43;7.60;;;;;;;15.25;68.75;101963.56;4899408;29;20108;-74
2023/04/29 10:43:32;;;;;;;11.13;7.30;;;;;;;15.31;68.64;101970.56;4899161;29;20040;-75
2023/04/29 10:46:16;;;;;;;13.77;7.57;;;;;;;15.22;68.45;101968.97;4898795;29;20060;-75
2023/04/29 10:48:45;;;;;;;11.35;6.93;;;;;;;15.07;67.25;101971.13;4891811;29;20069;-75
2023/04/29 10:51:13;;;;;;;13.20;7.05;;;;;;;14.95;67.64;101970.47;4899126;29;20041;-75
2023/04/29 10:53:59;;;;;;;12.15;6.78;;;;;;;14.92;69.06;101973.22;4897719;29;20128;-75
2023/04/29 10:56:38;;;;;;;13.82;7.07;;;;;;;14.88;68.09;101974.19;4900239;29;20036;-74
2023/04/29 10:59:04;;;;;;;11.45;6.57;;;;;;;14.81;66.63;101972.56;4907389;29;20029;-75
2023/04/29 11:01:46;;;;;;;9.32;6.43;;;;;;;14.81;67.85;101976.13;4915168;29;20349;-75
2023/04/29 11:04:12;;;;;;;11.48;7.07;;;;;;;14.74;65.85;101974.50;4906770;29;20037;-75
2023/04/29 11:06:40;;;;;;;9.85;6.40;;;;;;;14.74;64.19;101973.63;4882021;29;20468;-75
2023/04/29 11:09:14;;;;;;;11.52;6.88;;;;;;;14.79;66.41;101977.09;4897564;29;20095;-75
2023/04/29 11:11:52;;;;;;;12.75;7.20;;;;;;;14.84;65.85;101978.72;4898638;29;20025;-75
2023/04/29 11:14:28;;;;;;;10.27;6.78;;;;;;;14.88;66.70;101973.31;4881632;29;20100;-75
2023/04/29 11:16:57;;;;;;;9.95;5.70;;;;;;;14.89;65.37;101980.44;4881599;29;20476;-75
2023/04/29 11:19:50;;;;;;;12.82;6.60;;;;;;;14.89;64.88;101980.44;4892657;29;20462;-75
2023/04/29 11:22:21;;;;;;;10.82;6.80;;;;;;;14.93;65.49;101976.75;4885705;29;20032;-75